createdAt,value
2022-12-25T00:00:05.882Z,9.51
2022-12-25T00:02:32.615Z,9.52
2022-12-25T00:05:01.840Z,9.61
2022-12-25T00:07:28.395Z,9.71
2022-12-25T00:09:59.875Z,9.73
2022-12-25T00:12:26.835Z,9.83
2022-12-25T00:14:53.551Z,9.90
2022-12-25T00:17:23.126Z,9.94
2022-12-25T00:19:52.787Z,9.90
2022-12-25T00:22:19.468Z,9.90
2022-12-25T00:24:47.340Z,9.92
2022-12-25T00:27:14.003Z,9.77
2022-12-25T00:29:42.969Z,9.57
2022-12-25T00:32:12.011Z,9.50
2022-12-25T00:34:38.603Z,9.57
2022-12-25T00:37:07.616Z,9.56
2022-12-25T00:39:34.447Z,9.56
2022-12-25T00:42:21.560Z,9.66
2022-12-25T00:44:51.310Z,9.77
2022-12-25T00:47:20.286Z,9.84
2022-12-25T00:49:47.010Z,9.79
2022-12-25T00:52:16.663Z,9.78
2022-12-25T00:54:43.280Z,9.74
2022-12-25T00:57:12.739Z,9.76
2022-12-25T00:59:39.299Z,9.72
2022-12-25T01:02:24.718Z,9.46
2022-12-25T01:04:52.773Z,9.31
2022-12-25T01:07:21.803Z,9.34
2022-12-25T01:10:07.655Z,9.37
2022-12-25T01:12:35.251Z,9.48
2022-12-25T01:15:02.005Z,9.46
2022-12-25T01:17:28.586Z,9.45
2022-12-25T01:19:55.191Z,9.44
2022-12-25T01:22:22.235Z,9.47
2022-12-25T01:24:48.909Z,9.56
2022-12-25T01:27:17.977Z,9.63
2022-12-25T01:29:47.603Z,9.68
2022-12-25T01:32:14.359Z,9.75
2022-12-25T01:34:40.991Z,9.81
2022-12-25T01:37:07.596Z,9.75
2022-12-25T01:39:36.542Z,9.79
2022-12-25T01:42:03.182Z,9.86
2022-12-25T01:44:36.044Z,9.89
2022-12-25T01:47:05.920Z,9.86
2022-12-25T01:49:36.803Z,9.88
2022-12-25T01:52:06.456Z,9.89
2022-12-25T01:54:41.578Z,9.93
2022-12-25T01:57:09.245Z,9.94
2022-12-25T01:59:35.808Z,9.94
2022-12-25T02:02:02.821Z,9.97
2022-12-25T02:04:41.336Z,10.00
2022-12-25T02:07:18.363Z,10.05
2022-12-25T02:09:45.206Z,10.08
2022-12-25T02:12:16.518Z,10.08
2022-12-25T02:14:45.488Z,10.05
2022-12-25T02:17:17.203Z,10.02
2022-12-25T02:19:59.079Z,9.97
2022-12-25T02:22:25.870Z,9.98
2022-12-25T02:24:55.325Z,10.00
2022-12-25T02:27:44.001Z,10.03
2022-12-25T02:30:10.775Z,10.04
2022-12-25T02:32:40.698Z,10.03
2022-12-25T02:35:21.866Z,10.01
2022-12-25T02:38:00.547Z,9.98
2022-12-25T02:40:38.761Z,9.98
2022-12-25T02:43:25.852Z,10.01
2022-12-25T02:46:20.511Z,10.04
2022-12-25T02:49:07.403Z,10.10
2022-12-25T02:51:53.926Z,10.09
2022-12-25T02:54:40.683Z,10.10
2022-12-25T02:57:31.076Z,10.10
2022-12-25T03:00:16.296Z,10.03
2022-12-25T03:03:03.101Z,10.04
2022-12-25T03:05:48.290Z,10.05
2022-12-25T03:08:22.084Z,10.02
2022-12-25T03:11:11.126Z,9.88
2022-12-25T03:13:43.134Z,9.71
2022-12-25T03:16:28.873Z,9.66
2022-12-25T03:18:56.026Z,9.61
2022-12-25T03:21:41.289Z,9.63
2022-12-25T03:24:29.294Z,9.69
2022-12-25T03:26:57.303Z,9.72
2022-12-25T03:29:47.544Z,9.73
2022-12-25T03:32:58.991Z,9.72
2022-12-25T03:35:34.908Z,9.73
2022-12-25T03:38:23.203Z,9.77
2022-12-25T03:41:14.564Z,9.81
2022-12-25T03:44:13.165Z,9.90
2022-12-25T03:47:00.040Z,9.93
2022-12-25T03:49:46.165Z,9.85
2022-12-25T03:52:35.080Z,9.79
2022-12-25T03:55:24.214Z,9.74
2022-12-25T03:58:14.024Z,9.66
2022-12-25T04:01:01.782Z,9.61
2022-12-25T04:03:47.188Z,9.54
2022-12-25T04:06:33.852Z,9.44
2022-12-25T04:09:21.551Z,9.37
2022-12-25T04:12:06.950Z,9.26
2022-12-25T04:14:53.648Z,9.12
2022-12-25T04:17:39.322Z,9.05
2022-12-25T04:20:25.095Z,9.07
2022-12-25T04:23:10.384Z,9.17
2022-12-25T04:25:55.615Z,9.26
2022-12-25T04:28:40.826Z,9.24
2022-12-25T04:31:26.489Z,9.26
2022-12-25T04:34:11.861Z,9.25
2022-12-25T04:36:38.520Z,9.17
2022-12-25T04:39:05.261Z,9.12
2022-12-25T04:41:32.011Z,9.05
2022-12-25T04:43:59.012Z,8.93
2022-12-25T04:46:28.419Z,8.89
2022-12-25T04:48:57.116Z,8.89
2022-12-25T04:51:26.889Z,8.97
2022-12-25T04:53:53.716Z,9.07
2022-12-25T04:56:21.356Z,9.17
2022-12-25T04:58:48.350Z,9.23
2022-12-25T05:01:15.397Z,9.22
2022-12-25T05:03:44.572Z,9.23
2022-12-25T05:06:11.509Z,9.17
2022-12-25T05:08:38.238Z,9.17
2022-12-25T05:11:05.972Z,9.11
2022-12-25T05:13:36.170Z,9.06
2022-12-25T05:16:10.428Z,9.03
2022-12-25T05:18:37.176Z,8.99
2022-12-25T05:21:06.329Z,8.93
2022-12-25T05:23:35.607Z,8.81
2022-12-25T05:26:08.202Z,8.67
2022-12-25T05:28:35.581Z,8.62
2022-12-25T05:31:06.902Z,8.62
2022-12-25T05:33:35.933Z,8.62
2022-12-25T05:36:04.094Z,8.59
2022-12-25T05:38:30.905Z,8.54
2022-12-25T05:40:59.715Z,8.51
2022-12-25T05:43:26.856Z,8.45
2022-12-25T05:45:53.609Z,8.38
2022-12-25T05:48:20.380Z,8.39
2022-12-25T05:50:47.107Z,8.43
2022-12-25T05:53:14.455Z,8.43
2022-12-25T05:55:44.163Z,8.39
2022-12-25T05:58:11.512Z,8.40
2022-12-25T06:00:41.984Z,8.39
2022-12-25T06:03:10.010Z,8.40
2022-12-25T06:05:38.154Z,8.41
2022-12-25T06:08:07.494Z,8.41
2022-12-25T06:10:36.720Z,8.39
2022-12-25T06:13:08.873Z,8.39
2022-12-25T06:15:41.294Z,8.40
2022-12-25T06:18:08.315Z,8.39
2022-12-25T06:20:35.070Z,8.36
2022-12-25T06:23:06.527Z,8.34
2022-12-25T06:25:38.263Z,8.36
2022-12-25T06:28:07.351Z,8.27
2022-12-25T06:30:34.121Z,8.28
2022-12-25T06:33:00.743Z,8.31
2022-12-25T06:35:29.759Z,8.31
2022-12-25T06:37:58.820Z,8.32
2022-12-25T06:40:25.612Z,8.36
2022-12-25T06:42:53.402Z,8.40
2022-12-25T06:45:22.734Z,8.42
2022-12-25T06:47:49.650Z,8.45
2022-12-25T06:50:19.199Z,8.46
2022-12-25T06:52:46.233Z,8.24
2022-12-25T06:55:12.937Z,7.83
2022-12-25T06:57:42.112Z,7.73
2022-12-25T07:00:14.773Z,7.75
2022-12-25T07:02:42.335Z,7.84
2022-12-25T07:05:11.896Z,7.91
2022-12-25T07:07:38.983Z,8.02
2022-12-25T07:10:06.362Z,8.10
2022-12-25T07:12:33.049Z,8.17
2022-12-25T07:15:10.456Z,8.22
2022-12-25T07:17:42.135Z,8.29
2022-12-25T07:20:15.963Z,8.36
2022-12-25T07:25:41.685Z,7.98
2022-12-25T07:28:10.459Z,7.73
2022-12-25T07:30:40.744Z,7.67
2022-12-25T07:33:13.473Z,7.62
2022-12-25T07:35:50.067Z,7.64
2022-12-25T07:38:19.720Z,7.67
2022-12-25T07:40:49.103Z,7.88
2022-12-25T07:43:19.385Z,8.03
2022-12-25T07:45:48.591Z,8.18
2022-12-25T07:48:21.261Z,8.34
2022-12-25T07:50:51.732Z,8.32
2022-12-25T07:53:26.686Z,8.25
2022-12-25T07:56:00.038Z,8.30
2022-12-25T07:58:27.580Z,8.41
2022-12-25T08:00:59.471Z,8.58
2022-12-25T08:03:34.268Z,8.77
2022-12-25T08:06:10.759Z,8.88
2022-12-25T08:08:42.112Z,8.94
2022-12-25T08:11:10.190Z,8.92
2022-12-25T08:13:40.495Z,8.91
2022-12-25T08:16:11.036Z,8.96
2022-12-25T08:18:48.415Z,8.99
2022-12-25T08:21:18.878Z,9.02
2022-12-25T08:23:51.472Z,9.14
2022-12-25T08:26:22.631Z,9.24
2022-12-25T08:28:52.385Z,9.37
2022-12-25T08:31:27.316Z,9.43
2022-12-25T08:34:00.940Z,9.48
2022-12-25T08:36:32.008Z,9.51
2022-12-25T08:39:12.584Z,9.47
2022-12-25T08:41:46.148Z,9.42
2022-12-25T08:44:22.641Z,9.46
2022-12-25T08:47:03.433Z,9.46
2022-12-25T08:49:30.638Z,9.57
2022-12-25T08:52:06.725Z,9.74
2022-12-25T08:54:42.979Z,9.80
2022-12-25T09:00:16.409Z,9.93
2022-12-25T09:03:17.705Z,9.99
2022-12-25T09:05:49.564Z,10.10
2022-12-25T09:08:16.786Z,10.23
2022-12-25T09:11:00.561Z,10.34
2022-12-25T09:13:37.771Z,10.47
2022-12-25T09:19:11.092Z,10.76
2022-12-25T09:28:17.509Z,10.68
2022-12-25T09:31:03.372Z,10.61
2022-12-25T09:33:31.518Z,10.52
2022-12-25T09:36:09.340Z,10.53
2022-12-25T09:38:39.801Z,10.75
2022-12-25T09:41:27.035Z,10.97
2022-12-25T09:44:18.174Z,11.32
2022-12-25T09:47:06.785Z,11.65
2022-12-25T09:49:39.777Z,11.94
2022-12-25T09:52:15.341Z,12.11
2022-12-25T09:54:57.829Z,12.38
2022-12-25T09:57:30.514Z,12.66
2022-12-25T10:00:02.969Z,12.61
2022-12-25T10:02:38.010Z,12.67
2022-12-25T10:05:30.319Z,12.72
2022-12-25T10:08:21.305Z,12.80
2022-12-25T10:11:15.190Z,12.91
2022-12-25T10:14:02.772Z,13.13
2022-12-25T10:16:44.671Z,13.36
2022-12-25T10:19:14.520Z,13.51
2022-12-25T10:21:52.210Z,13.82
2022-12-25T10:24:39.211Z,14.16
2022-12-25T10:27:39.835Z,14.45
2022-12-25T10:30:20.277Z,14.68
2022-12-25T10:32:53.583Z,14.96
2022-12-25T10:35:30.409Z,15.18
2022-12-25T10:38:09.538Z,15.37
2022-12-25T10:41:20.845Z,15.58
2022-12-25T10:43:56.052Z,15.81
2022-12-25T10:46:31.507Z,16.02
2022-12-25T10:49:16.464Z,16.23
2022-12-25T10:52:07.477Z,16.27
2022-12-25T10:54:42.632Z,16.16
2022-12-25T10:57:16.547Z,16.37
2022-12-25T10:59:49.788Z,16.52
2022-12-25T11:02:22.015Z,16.77
2022-12-25T11:04:59.970Z,17.09
2022-12-25T11:07:35.006Z,17.46
2022-12-25T11:10:39.367Z,17.67
2022-12-25T11:13:31.619Z,18.02
2022-12-25T11:16:19.702Z,18.31
2022-12-25T11:18:51.879Z,18.56
2022-12-25T11:21:40.534Z,18.70
2022-12-25T11:24:37.943Z,18.98
2022-12-25T11:27:12.996Z,19.26
2022-12-25T11:29:45.676Z,19.35
2022-12-25T11:32:29.817Z,19.46
2022-12-25T11:35:02.548Z,19.66
2022-12-25T11:37:47.611Z,19.84
2022-12-25T11:40:57.079Z,20.10
2022-12-25T11:43:59.422Z,20.25
2022-12-25T11:46:44.963Z,20.37
2022-12-25T11:49:16.052Z,20.49
2022-12-25T11:51:51.330Z,20.58
2022-12-25T11:54:24.924Z,20.70
2022-12-25T11:56:55.232Z,20.82
2022-12-25T11:59:44.870Z,20.82
2022-12-25T12:08:30.904Z,21.26
2022-12-25T12:11:22.331Z,21.13
2022-12-25T12:14:20.103Z,20.98
2022-12-25T12:16:58.994Z,20.89
2022-12-25T12:19:38.956Z,20.75
2022-12-25T12:22:18.251Z,20.73
2022-12-25T12:25:06.337Z,20.79
2022-12-25T12:27:41.217Z,20.44
2022-12-25T12:33:47.863Z,19.20
2022-12-25T12:36:46.757Z,19.10
2022-12-25T12:39:39.084Z,18.89
2022-12-25T12:42:31.055Z,18.61
2022-12-25T12:45:16.202Z,18.45
2022-12-25T12:47:46.615Z,18.34
2022-12-25T12:50:34.337Z,17.91
2022-12-25T12:53:07.815Z,17.72
2022-12-25T12:55:35.819Z,17.40
2022-12-25T12:58:03.875Z,17.45
2022-12-25T13:00:44.614Z,17.42
2022-12-25T13:03:18.888Z,17.35
2022-12-25T13:05:48.239Z,17.41
2022-12-25T13:08:30.232Z,17.41
2022-12-25T13:11:12.490Z,17.20
2022-12-25T13:13:45.391Z,16.93
2022-12-25T13:16:23.245Z,16.71
2022-12-25T13:18:55.863Z,16.44
2022-12-25T13:21:26.392Z,16.42
2022-12-25T13:24:13.277Z,16.44
2022-12-25T13:26:39.905Z,16.47
2022-12-25T13:29:11.473Z,16.47
2022-12-25T13:31:39.676Z,16.38
2022-12-25T13:34:23.585Z,16.26
2022-12-25T13:36:52.692Z,16.18
2022-12-25T13:39:23.616Z,16.17
2022-12-25T13:42:05.680Z,16.05
2022-12-25T13:44:41.509Z,15.84
2022-12-25T13:47:18.524Z,15.70
2022-12-25T13:49:45.706Z,15.60
2022-12-25T13:52:13.838Z,15.57
2022-12-25T13:54:53.342Z,15.53
2022-12-25T13:57:19.965Z,15.40
2022-12-25T13:59:46.645Z,15.43
2022-12-25T14:02:18.817Z,15.33
2022-12-25T14:04:45.981Z,15.07
2022-12-25T14:07:12.673Z,15.21
2022-12-25T14:09:41.451Z,15.35
2022-12-25T14:12:09.233Z,15.01
2022-12-25T14:14:37.542Z,15.04
2022-12-25T14:17:06.779Z,15.04
2022-12-25T14:19:33.937Z,14.97
2022-12-25T14:22:11.348Z,14.86
2022-12-25T14:24:38.153Z,14.76
2022-12-25T14:27:15.516Z,14.74
2022-12-25T14:29:45.027Z,14.72
2022-12-25T14:32:14.875Z,14.69
2022-12-25T14:34:43.979Z,14.64
2022-12-25T14:37:14.807Z,14.53
2022-12-25T14:39:47.102Z,14.32
2022-12-25T14:42:18.476Z,14.22
2022-12-25T14:44:45.180Z,14.16
2022-12-25T14:47:15.787Z,14.09
2022-12-25T14:49:42.697Z,14.08
2022-12-25T14:52:28.475Z,13.94
2022-12-25T14:54:59.534Z,13.83
2022-12-25T14:57:46.845Z,13.93
2022-12-25T15:00:26.894Z,13.99
2022-12-25T15:02:54.572Z,13.94
2022-12-25T15:05:30.660Z,13.90
2022-12-25T15:08:06.419Z,13.73
2022-12-25T15:11:04.076Z,13.63
2022-12-25T15:13:22.679Z,13.59
2022-12-25T15:15:52.405Z,13.55
2022-12-25T15:18:24.411Z,13.48
2022-12-25T15:20:54.902Z,13.42
2022-12-25T15:23:25.467Z,13.35
2022-12-25T15:25:52.263Z,13.29
2022-12-25T15:28:21.334Z,13.23
2022-12-25T15:30:57.046Z,13.16
2022-12-25T15:33:23.856Z,13.11
2022-12-25T15:35:52.942Z,13.03
2022-12-25T15:38:21.722Z,12.91
2022-12-25T15:40:50.731Z,12.85
2022-12-25T15:43:40.083Z,12.84
2022-12-25T15:46:05.833Z,12.83
2022-12-25T15:48:34.908Z,12.83
2022-12-25T15:51:12.881Z,12.81
2022-12-25T15:53:48.055Z,12.72
2022-12-25T15:56:18.559Z,12.68
2022-12-25T15:58:45.940Z,12.61
2022-12-25T16:01:24.182Z,12.57
2022-12-25T16:03:59.996Z,12.56
2022-12-25T16:06:29.733Z,12.59
2022-12-25T16:09:01.229Z,12.63
2022-12-25T16:11:30.396Z,12.58
2022-12-25T16:13:59.806Z,12.53
2022-12-25T16:16:37.660Z,12.58
2022-12-25T16:19:40.851Z,12.65
2022-12-25T16:22:20.701Z,12.74
2022-12-25T16:24:48.328Z,12.83
2022-12-25T16:27:15.932Z,12.83
2022-12-25T16:29:42.835Z,12.91
2022-12-25T16:32:13.392Z,13.02
2022-12-25T16:34:40.740Z,13.14
2022-12-25T16:37:19.539Z,13.24
2022-12-25T16:39:52.357Z,13.32
2022-12-25T16:42:19.092Z,13.38
2022-12-25T16:44:48.560Z,13.42
2022-12-25T16:47:17.656Z,13.39
2022-12-25T16:49:47.251Z,13.39
2022-12-25T16:52:25.804Z,13.37
2022-12-25T16:54:53.369Z,13.31
2022-12-25T16:57:26.497Z,13.32
2022-12-25T17:00:04.110Z,13.35
2022-12-25T17:02:30.998Z,13.28
2022-12-25T17:05:01.096Z,13.29
2022-12-25T17:07:28.454Z,13.24
2022-12-25T17:10:03.925Z,13.17
2022-12-25T17:12:30.606Z,13.16
2022-12-25T17:14:59.554Z,13.09
2022-12-25T17:17:31.564Z,13.08
2022-12-25T17:20:00.429Z,13.00
2022-12-25T17:22:27.437Z,13.03
2022-12-25T17:24:54.510Z,13.04
2022-12-25T17:27:23.635Z,13.00
2022-12-25T17:29:51.917Z,13.00
2022-12-25T17:32:18.567Z,13.01
2022-12-25T17:34:50.180Z,12.97
2022-12-25T17:37:16.815Z,12.90
2022-12-25T17:39:43.944Z,12.86
2022-12-25T17:42:11.662Z,12.79
2022-12-25T17:44:38.737Z,12.80
2022-12-25T17:47:09.082Z,12.79
2022-12-25T17:49:38.902Z,12.79
2022-12-25T17:52:06.487Z,12.74
2022-12-25T17:54:33.416Z,12.77
2022-12-25T17:57:04.743Z,12.70
2022-12-25T17:59:34.030Z,12.72
2022-12-25T18:02:01.040Z,12.71
2022-12-25T18:04:28.453Z,12.71
2022-12-25T18:06:57.761Z,12.57
2022-12-25T18:09:36.779Z,12.54
2022-12-25T18:12:04.339Z,12.27
2022-12-25T18:14:31.400Z,12.19
2022-12-25T18:17:03.386Z,12.14
2022-12-25T18:19:32.545Z,11.96
2022-12-25T18:21:59.909Z,11.94
2022-12-25T18:24:29.528Z,11.87
2022-12-25T18:27:03.415Z,11.80
2022-12-25T18:29:32.695Z,11.63
2022-12-25T18:31:59.711Z,11.55
2022-12-25T18:34:31.611Z,11.60
2022-12-25T18:37:04.197Z,11.68
2022-12-25T18:39:35.607Z,11.77
2022-12-25T18:42:21.493Z,11.80
2022-12-25T18:44:48.594Z,11.76
2022-12-25T18:47:18.035Z,11.75
2022-12-25T18:49:44.857Z,11.77
2022-12-25T18:52:49.352Z,11.87
2022-12-25T18:55:03.638Z,11.94
2022-12-25T18:57:32.922Z,12.01
2022-12-25T19:00:01.285Z,12.06
2022-12-25T19:02:28.484Z,12.11
2022-12-25T19:04:55.785Z,12.18
2022-12-25T19:07:23.428Z,12.29
2022-12-25T19:09:52.161Z,12.35
2022-12-25T19:12:20.692Z,12.31
2022-12-25T19:14:48.508Z,12.35
2022-12-25T19:17:15.770Z,12.34
2022-12-25T19:19:46.115Z,12.31
2022-12-25T19:22:17.672Z,12.30
2022-12-25T19:24:46.575Z,12.35
2022-12-25T19:27:15.720Z,12.41
2022-12-25T19:29:44.914Z,12.43
2022-12-25T19:32:11.603Z,12.47
2022-12-25T19:34:43.364Z,12.51
2022-12-25T19:37:10.002Z,12.59
2022-12-25T19:39:36.654Z,12.65
2022-12-25T19:42:08.138Z,12.62
2022-12-25T19:44:36.913Z,12.51
2022-12-25T19:47:06.389Z,12.40
2022-12-25T19:49:33.117Z,12.36
2022-12-25T19:51:59.732Z,12.37
2022-12-25T19:54:29.546Z,12.47
2022-12-25T19:56:56.307Z,12.56
2022-12-25T19:59:23.183Z,12.46
2022-12-25T20:01:50.392Z,12.37
2022-12-25T20:04:22.704Z,12.33
2022-12-25T20:06:49.394Z,12.34
2022-12-25T20:09:21.539Z,12.41
2022-12-25T20:11:48.525Z,12.45
2022-12-25T20:14:16.361Z,12.41
2022-12-25T20:16:52.949Z,12.45
2022-12-25T20:22:23.878Z,11.91
2022-12-25T20:24:56.489Z,11.76
2022-12-25T20:27:27.399Z,11.84
2022-12-25T20:30:06.906Z,11.83
2022-12-25T20:32:37.426Z,11.93
2022-12-25T20:35:04.343Z,11.98
2022-12-25T20:37:35.947Z,11.95
2022-12-25T20:40:04.880Z,11.94
2022-12-25T20:42:33.937Z,12.01
2022-12-25T20:45:01.738Z,11.96
2022-12-25T20:47:28.375Z,12.04
2022-12-25T20:49:55.527Z,12.11
2022-12-25T20:52:22.175Z,12.17
2022-12-25T20:54:51.331Z,12.19
2022-12-25T20:57:18.034Z,12.20
2022-12-25T20:59:44.769Z,12.22
2022-12-25T21:02:33.357Z,12.21
2022-12-25T21:05:04.789Z,12.29
2022-12-25T21:07:33.805Z,12.31
2022-12-25T21:10:03.658Z,12.23
2022-12-25T21:12:30.527Z,12.22
2022-12-25T21:14:57.214Z,12.17
2022-12-25T21:17:23.821Z,12.23
2022-12-25T21:19:50.933Z,12.23
2022-12-25T21:22:17.647Z,12.30
2022-12-25T21:24:52.007Z,12.38
2022-12-25T21:27:18.756Z,12.48
2022-12-25T21:29:45.324Z,12.55
2022-12-25T21:32:30.671Z,12.54
2022-12-25T21:35:03.029Z,12.58
2022-12-25T21:37:34.852Z,12.63
2022-12-25T21:40:01.635Z,12.55
2022-12-25T21:42:28.375Z,12.53
2022-12-25T21:44:55.053Z,12.55
2022-12-25T21:47:21.671Z,12.62
2022-12-25T21:50:09.492Z,12.60
2022-12-25T21:52:39.197Z,12.62
2022-12-25T21:55:08.109Z,12.64
2022-12-25T21:57:37.433Z,12.61
2022-12-25T22:00:05.113Z,12.62
2022-12-25T22:02:33.186Z,12.62
2022-12-25T22:05:23.468Z,12.65
2022-12-25T22:07:50.257Z,12.69
2022-12-25T22:10:17.539Z,12.74
2022-12-25T22:13:02.983Z,12.79
2022-12-25T22:15:48.539Z,12.76
2022-12-25T22:18:34.133Z,12.76
2022-12-25T22:21:00.721Z,12.77
2022-12-25T22:23:27.814Z,12.81
2022-12-25T22:25:54.385Z,12.82
2022-12-25T22:28:25.899Z,12.72
2022-12-25T22:30:53.026Z,12.72
2022-12-25T22:33:20.540Z,12.75
2022-12-25T22:35:49.538Z,12.79
2022-12-25T22:38:19.063Z,12.81
2022-12-25T22:40:48.707Z,12.82
2022-12-25T22:43:15.407Z,12.80
2022-12-25T22:45:41.969Z,12.79
2022-12-25T22:48:08.595Z,12.81
2022-12-25T22:50:40.246Z,12.85
2022-12-25T22:53:07.219Z,12.88
2022-12-25T22:55:36.412Z,12.86
2022-12-25T22:58:03.473Z,12.85
2022-12-25T23:00:32.488Z,12.79
2022-12-25T23:02:59.354Z,12.78
2022-12-25T23:05:26.077Z,12.78
2022-12-25T23:07:52.853Z,12.74
2022-12-25T23:10:22.028Z,12.76
2022-12-25T23:13:07.319Z,12.79
2022-12-25T23:15:34.099Z,12.80
2022-12-25T23:18:19.415Z,12.80
2022-12-25T23:21:05.172Z,12.76
2022-12-25T23:23:50.647Z,12.75
2022-12-25T23:26:18.625Z,12.75
2022-12-25T23:29:04.028Z,12.76
2022-12-25T23:31:33.738Z,12.77
2022-12-25T23:34:00.658Z,12.77
2022-12-25T23:36:29.599Z,12.73
2022-12-25T23:38:56.257Z,12.64
2022-12-25T23:41:25.325Z,12.51
2022-12-25T23:43:52.012Z,12.43
2022-12-25T23:46:21.193Z,12.37
2022-12-25T23:48:47.893Z,12.32
2022-12-25T23:51:14.524Z,12.29
2022-12-25T23:53:43.612Z,12.28
2022-12-25T23:56:10.660Z,12.31
2022-12-25T23:58:37.545Z,12.32
